메인 페이지
METAR-TAF:

METAR-TAF

공항 :

몬트리올 피에르 엘리오트 트뤼도 국제공항

몬트리올 트뤼도, 퀘벡, 캐나다

위도: 45-28N, 경도: 073-45W, 고도: 31m

현재 날씨관측

예보는 56분 전, 11:00시(UTC)에 발표되었습니다.
서남서3kt
온도 -7°C
습도 93%
기압 1009 hPa
시정: 16.1km
고도 1200ft 상공 구름 조금
고도 2000ft 상공 구름 보통
고도 4000ft 상공 흐림
약한눈

METAR: CYUL 031100Z 24003KT 10SM -SN FEW012 SCT020 OVC040 M07/M08 A2979 RMK SF1SC3SC5 SF TR SLP091

시각: 06:56 (11:56 UTC)

예보

예보는 18분 전, 11:38시(UTC)에 발표되었습니다.
예보 대상 시간: 03일 12시부터 04일 12시까지 (UTC)
서남서5kt
시정: 10km
고도 3000ft 상공 흐림
약한눈
일시적
03일 12시부터 03일 16시까지 (UTC)
시정: 4.8km
고도 2000ft 상공 흐림
약한눈
03일 1600시부터 (UTC)
서북서8kt
시정: 10km
고도 2000ft 상공 구름 보통
고도 6000ft 상공 구름 많음
일시적
03일 16시부터 04일 02시까지 (UTC)
시정: 8.0km
고도 2000ft 상공 구름 많음
고도 6000ft 상공 흐림
약한소낙눈
04일 0200시부터 (UTC)
북북서10kt
시정: 10km
고도 6000ft 상공 구름 많음
04일 0400시부터 (UTC)
서북서8kt
시정: 10km
고도 6000ft 상공 구름 조금

TAF: CYUL 031138Z 0312/0412 24005KT P6SM -SN OVC030 TEMPO 0312/0316 3SM -SN OVC020 FM031600 30008KT P6SM SCT020 BKN060 TEMPO 0316/0402 5SM -SHSN BKN020 OVC060 FM040200 33010KT P6SM BKN060 FM040400 30008KT P6SM FEW060 RMK NXT FCST BY 031500Z

4,000개 이상의 공항 관측 자료 및 예보 (METAR 및 TAF 보고).

지도상에서 검색 가능한 기상관측소가 노란 점과 빨간 점으로 표시되어 있습니다.

기상관측소 명을 보려면 표시 위로 마우스를 이동하세요.

날씨 관측과 예보를 보려면 클릭하세요.

지도 변경 : 확대하려면 엑스 표시가 있는 녹색 버튼, 축소하려면 빼기 표시가 있는 녹색 버튼, 다음 페이지의 지도를 보려면 녹색 화살표를 클릭하세요.


METAR-TAF: